FAWT weather

Cape Blue Mine Airport
Westerberg, Northern Cape, South Africa

Public forecast

Using degrees Celsius for public forecast. Weather courtesy of forecast.io.

METAR (pilot weather report)

Closest report is Pierre Van Ryneveld Airport, 77.7 nm (143.9 km) NW. Retrieved 2019/08/24 22:00 UTC (33 seconds ago):

FAUP 242200Z AUTO 36008KT //// // ////// 18/M06 Q1023

TAF (pilot weather forecast)

Closest forecast is Pierre Van Ryneveld Airport, 77.7 nm (143.9 km) NW. Retrieved 2019/08/24 18:00 UTC (4 hours ago):

TAF FAUP 241600Z 2418/2518 34008KT CAVOK TX30/2513Z TN11/2505Z